Time;durP1;ratioP1;P1;durP2;ratioP2;P2;SDS_P1;SDS_P2;PMS_P1;PMS_P2;Temp;Humidity;BMP_temperature;BMP_pressure;BME280_temperature;BME280_humidity;BME280_pressure;Samples;Min_cycle;Max_cycle;Signal;HPM_P1;HPM_P2
2022/03/15 00:00:36;;;;;;;69.85;5.90;;;;;;;;;;4993151;28;20038;-35
2022/03/15 00:03:03;;;;;;;42.45;4.80;;;;;;;;;;4993834;28;20027;-36
2022/03/15 00:05:31;;;;;;;29.33;3.58;;;;;;;;;;4994093;28;20015;-37
2022/03/15 00:07:58;;;;;;;52.33;4.63;;;;;;;;;;4993235;28;20035;-33
2022/03/15 00:10:25;;;;;;;31.42;3.53;;;;;;;;;;4993874;28;20137;-36
2022/03/15 00:12:54;;;;;;;45.08;5.03;;;;;;;;;;4993470;28;20033;-37
2022/03/15 00:15:21;;;;;;;36.40;3.75;;;;;;;;;;4993423;28;20046;-34
2022/03/15 00:17:48;;;;;;;30.17;3.28;;;;;;;;;;4993013;28;20035;-34
2022/03/15 00:20:18;;;;;;;35.22;3.33;;;;;;;;;;4993522;28;20038;-36
2022/03/15 00:22:47;;;;;;;41.35;4.47;;;;;;;;;;4993470;28;20436;-34
2022/03/15 00:28:24;;;;;;;32.40;2.97;;;;;;;;;;5006131;28;20455;-34
2022/03/15 00:30:52;;;;;;;33.80;4.85;;;;;;;;;;5011758;28;20053;-35
2022/03/15 00:33:19;;;;;;;26.02;3.58;;;;;;;;;;5006310;28;20061;-38
2022/03/15 00:35:47;;;;;;;37.72;3.28;;;;;;;;;;5003728;28;20018;-33
2022/03/15 00:38:14;;;;;;;30.85;3.30;;;;;;;;;;5012541;28;20033;-36
2022/03/15 00:40:41;;;;;;;45.50;3.65;;;;;;;;;;5012879;28;20053;-35
2022/03/15 00:43:08;;;;;;;34.92;2.92;;;;;;;;;;5012846;28;20175;-36
2022/03/15 00:45:35;;;;;;;24.73;2.65;;;;;;;;;;5013053;28;20026;-35
2022/03/15 00:48:02;;;;;;;30.35;2.85;;;;;;;;;;5000522;28;20033;-37
2022/03/15 00:50:32;;;;;;;19.83;2.15;;;;;;;;;;4993085;28;20026;-38
2022/03/15 00:53:00;;;;;;;16.00;2.05;;;;;;;;;;4993173;28;20038;-38
2022/03/15 00:55:27;;;;;;;28.98;2.47;;;;;;;;;;5005037;28;20037;-39
2022/03/15 00:57:54;;;;;;;16.85;1.83;;;;;;;;;;4983326;28;20038;-39
2022/03/15 01:00:21;;;;;;;14.02;1.65;;;;;;;;;;5011802;28;20026;-46
2022/03/15 01:02:49;;;;;;;34.58;3.05;;;;;;;;;;5011517;28;20065;-36
2022/03/15 01:05:17;;;;;;;90.90;7.80;;;;;;;;;;5011875;28;20034;-43
2022/03/15 01:07:44;;;;;;;32.72;3.60;;;;;;;;;;4997163;28;20117;-34
2022/03/15 01:10:11;;;;;;;39.58;3.10;;;;;;;;;;4992469;28;20026;-33
2022/03/15 01:12:38;;;;;;;22.92;1.98;;;;;;;;;;4991357;28;20022;-33
2022/03/15 01:15:07;;;;;;;14.57;1.95;;;;;;;;;;4992925;28;20531;-33
2022/03/15 01:17:34;;;;;;;16.70;1.50;;;;;;;;;;4992825;28;20121;-33
2022/03/15 01:20:02;;;;;;;17.08;1.48;;;;;;;;;;4992453;28;20030;-33
2022/03/15 01:22:29;;;;;;;15.52;1.90;;;;;;;;;;4992730;28;20062;-32
2022/03/15 01:24:56;;;;;;;11.13;1.48;;;;;;;;;;4992892;28;20033;-33
2022/03/15 01:27:23;;;;;;;21.50;1.80;;;;;;;;;;4992098;28;20595;-32
2022/03/15 01:29:50;;;;;;;12.27;1.42;;;;;;;;;;4992539;28;20034;-33
2022/03/15 01:32:17;;;;;;;12.77;1.20;;;;;;;;;;4992322;28;20037;-33
2022/03/15 01:34:44;;;;;;;11.13;1.50;;;;;;;;;;4992161;28;20134;-33
2022/03/15 01:37:11;;;;;;;10.02;1.48;;;;;;;;;;4992278;28;20388;-33
2022/03/15 01:39:38;;;;;;;14.82;1.55;;;;;;;;;;4992422;28;20429;-32
2022/03/15 01:42:05;;;;;;;9.48;1.08;;;;;;;;;;4992116;28;20084;-32
2022/03/15 01:44:33;;;;;;;6.55;1.25;;;;;;;;;;4992288;28;20541;-32
2022/03/15 01:47:01;;;;;;;22.50;1.45;;;;;;;;;;4991848;28;20046;-33
2022/03/15 01:49:28;;;;;;;7.63;1.00;;;;;;;;;;4992044;28;20354;-34
2022/03/15 01:51:54;;;;;;;14.73;2.13;;;;;;;;;;4992749;28;20034;-34
2022/03/15 01:54:22;;;;;;;15.07;1.40;;;;;;;;;;5031457;28;20391;-33
2022/03/15 01:56:49;;;;;;;12.60;1.67;;;;;;;;;;5031418;28;20037;-33
2022/03/15 01:59:17;;;;;;;13.15;1.35;;;;;;;;;;5012465;28;20091;-33
2022/03/15 02:01:46;;;;;;;10.68;1.52;;;;;;;;;;5011452;28;20052;-33
2022/03/15 02:04:15;;;;;;;20.23;1.95;;;;;;;;;;5022452;28;20531;-33
2022/03/15 02:06:42;;;;;;;8.02;1.67;;;;;;;;;;5031339;28;20472;-33
2022/03/15 02:09:10;;;;;;;14.43;1.65;;;;;;;;;;5031748;28;20423;-33
2022/03/15 02:11:37;;;;;;;10.32;1.50;;;;;;;;;;5031725;28;20033;-32
2022/03/15 02:14:05;;;;;;;10.15;1.77;;;;;;;;;;5031753;28;20051;-33
2022/03/15 02:16:32;;;;;;;6.05;1.40;;;;;;;;;;5031726;28;20573;-33
2022/03/15 02:19:00;;;;;;;12.57;1.40;;;;;;;;;;5031964;28;20029;-32
2022/03/15 02:21:27;;;;;;;8.25;1.50;;;;;;;;;;5031656;28;20036;-33
2022/03/15 02:23:54;;;;;;;11.18;1.40;;;;;;;;;;5033214;28;20032;-32
2022/03/15 02:26:21;;;;;;;16.95;1.55;;;;;;;;;;5035419;28;20033;-32
2022/03/15 02:28:48;;;;;;;12.45;1.45;;;;;;;;;;5035459;28;20041;-32
2022/03/15 02:31:15;;;;;;;9.52;1.45;;;;;;;;;;5035649;28;20140;-32
2022/03/15 02:33:43;;;;;;;5.90;1.52;;;;;;;;;;5035614;28;20056;-33
2022/03/15 02:36:10;;;;;;;10.35;1.30;;;;;;;;;;5034950;28;20034;-33
2022/03/15 02:38:37;;;;;;;6.55;1.20;;;;;;;;;;5035501;28;20512;-33
2022/03/15 02:41:05;;;;;;;7.93;1.40;;;;;;;;;;5035236;28;20053;-33
2022/03/15 02:43:32;;;;;;;10.65;1.27;;;;;;;;;;5035107;28;20029;-33
2022/03/15 02:45:59;;;;;;;7.47;1.23;;;;;;;;;;5035027;28;20059;-33
2022/03/15 02:48:26;;;;;;;6.78;1.17;;;;;;;;;;5035393;28;20040;-33
2022/03/15 02:54:08;;;;;;;8.52;1.13;;;;;;;;;;5015468;28;20028;-33
2022/03/15 02:56:36;;;;;;;3.28;1.02;;;;;;;;;;5015193;28;20034;-33
2022/03/15 02:59:03;;;;;;;6.18;1.33;;;;;;;;;;5015251;28;20554;-33
2022/03/15 03:01:30;;;;;;;6.82;1.13;;;;;;;;;;5015368;28;20097;-33
2022/03/15 03:03:58;;;;;;;8.50;1.33;;;;;;;;;;5015433;28;20036;-33
2022/03/15 03:06:25;;;;;;;6.75;1.17;;;;;;;;;;5015020;28;20077;-33
2022/03/15 03:08:52;;;;;;;6.40;1.15;;;;;;;;;;5015090;28;20438;-33
2022/03/15 03:11:19;;;;;;;7.45;1.20;;;;;;;;;;5014932;28;20075;-33
2022/03/15 03:13:48;;;;;;;5.60;0.98;;;;;;;;;;5015172;28;20030;-33
2022/03/15 03:16:16;;;;;;;5.28;0.80;;;;;;;;;;5014984;28;20057;-33
2022/03/15 03:18:43;;;;;;;3.83;0.88;;;;;;;;;;5014945;28;20400;-33
2022/03/15 03:21:10;;;;;;;4.55;1.00;;;;;;;;;;5015048;28;20037;-33
2022/03/15 03:23:39;;;;;;;5.90;1.08;;;;;;;;;;5014972;28;20482;-33
2022/03/15 03:26:08;;;;;;;4.30;0.95;;;;;;;;;;5014628;28;20369;-33
2022/03/15 03:28:39;;;;;;;9.55;1.10;;;;;;;;;;5014893;28;20072;-33
2022/03/15 03:31:07;;;;;;;5.45;1.02;;;;;;;;;;5014898;28;20045;-33
2022/03/15 03:33:34;;;;;;;3.47;0.77;;;;;;;;;;5014667;28;20026;-33
2022/03/15 03:36:02;;;;;;;7.70;1.17;;;;;;;;;;5013732;28;20037;-33
2022/03/15 03:38:29;;;;;;;7.38;1.10;;;;;;;;;;5014770;28;20101;-33
2022/03/15 03:40:56;;;;;;;5.78;1.27;;;;;;;;;;5014337;28;20050;-33
2022/03/15 03:43:23;;;;;;;6.32;1.15;;;;;;;;;;5014136;28;20033;-33
2022/03/15 03:45:50;;;;;;;6.18;0.82;;;;;;;;;;5014122;28;20484;-33
2022/03/15 03:48:17;;;;;;;2.58;0.73;;;;;;;;;;5014508;28;20026;-33
2022/03/15 03:50:44;;;;;;;7.75;1.63;;;;;;;;;;5014261;28;20036;-33
2022/03/15 03:53:11;;;;;;;5.90;0.63;;;;;;;;;;5014434;28;20034;-33
2022/03/15 03:55:39;;;;;;;6.90;1.00;;;;;;;;;;5014223;28;20040;-33
2022/03/15 03:58:06;;;;;;;5.43;1.17;;;;;;;;;;5014319;28;20022;-33
2022/03/15 04:00:33;;;;;;;4.18;0.77;;;;;;;;;;5014354;28;20032;-33
2022/03/15 04:03:00;;;;;;;5.68;0.90;;;;;;;;;;5014192;28;20054;-33
2022/03/15 04:05:30;;;;;;;2.90;0.70;;;;;;;;;;5014086;28;20030;-33
2022/03/15 04:08:01;;;;;;;3.10;0.77;;;;;;;;;;5014075;28;20037;-33
2022/03/15 04:10:30;;;;;;;4.22;0.73;;;;;;;;;;5014048;28;20041;-33
2022/03/15 04:12:57;;;;;;;4.32;0.65;;;;;;;;;;5013952;28;20040;-33
2022/03/15 04:15:24;;;;;;;3.75;0.85;;;;;;;;;;5013926;28;20099;-33
2022/03/15 04:17:51;;;;;;;3.80;0.70;;;;;;;;;;5014054;28;20500;-33
2022/03/15 04:20:18;;;;;;;2.38;0.80;;;;;;;;;;5013704;28;20021;-33
2022/03/15 04:22:45;;;;;;;4.40;0.85;;;;;;;;;;5013766;28;20456;-33
2022/03/15 04:25:14;;;;;;;2.08;0.75;;;;;;;;;;5013696;28;20083;-33
2022/03/15 04:27:41;;;;;;;4.40;0.82;;;;;;;;;;5013601;28;20412;-33
2022/03/15 04:30:08;;;;;;;4.43;0.70;;;;;;;;;;5013769;28;20105;-33
2022/03/15 04:32:35;;;;;;;2.90;0.55;;;;;;;;;;5013642;28;20149;-33
2022/03/15 04:35:01;;;;;;;3.38;1.00;;;;;;;;;;5013572;28;20050;-33
2022/03/15 04:37:28;;;;;;;1.92;0.65;;;;;;;;;;5013598;28;20452;-33
2022/03/15 04:39:58;;;;;;;4.13;0.70;;;;;;;;;;5013553;28;20022;-33
2022/03/15 04:42:26;;;;;;;4.30;0.68;;;;;;;;;;5013389;28;20422;-33
2022/03/15 04:44:53;;;;;;;4.25;0.95;;;;;;;;;;5013423;28;20030;-33
2022/03/15 04:47:19;;;;;;;1.98;0.57;;;;;;;;;;5013274;28;20046;-33
2022/03/15 04:49:46;;;;;;;3.08;0.90;;;;;;;;;;5013402;28;20030;-33
2022/03/15 04:52:13;;;;;;;4.25;0.73;;;;;;;;;;5013367;28;20040;-33
2022/03/15 04:54:40;;;;;;;3.05;0.80;;;;;;;;;;5013382;28;20022;-33
2022/03/15 04:57:07;;;;;;;1.85;0.40;;;;;;;;;;5013146;28;20510;-33
2022/03/15 04:59:34;;;;;;;4.50;0.93;;;;;;;;;;5013248;28;20025;-33
2022/03/15 05:02:01;;;;;;;3.67;0.68;;;;;;;;;;5013262;28;20399;-33
2022/03/15 05:04:28;;;;;;;4.60;0.52;;;;;;;;;;5013223;28;20506;-33
2022/03/15 05:06:55;;;;;;;3.95;0.80;;;;;;;;;;5012989;28;20030;-33
2022/03/15 05:09:22;;;;;;;4.45;0.80;;;;;;;;;;5013056;28;20026;-33
2022/03/15 05:11:49;;;;;;;1.48;0.50;;;;;;;;;;5013095;28;20029;-33
2022/03/15 05:14:16;;;;;;;3.80;0.63;;;;;;;;;;5013062;28;20542;-33
2022/03/15 05:16:44;;;;;;;4.10;0.60;;;;;;;;;;5012441;28;20048;-33
2022/03/15 05:19:11;;;;;;;4.00;0.70;;;;;;;;;;4993287;28;20116;-33
2022/03/15 05:21:43;;;;;;;4.38;0.80;;;;;;;;;;5012720;28;20073;-33
2022/03/15 05:24:10;;;;;;;3.30;0.52;;;;;;;;;;5012902;28;20052;-33
2022/03/15 05:26:36;;;;;;;3.00;0.55;;;;;;;;;;5012912;28;20053;-33
2022/03/15 05:29:04;;;;;;;2.10;0.63;;;;;;;;;;5012771;28;20100;-33
2022/03/15 05:31:31;;;;;;;1.80;0.50;;;;;;;;;;5012709;28;20066;-33
2022/03/15 05:33:58;;;;;;;3.83;0.60;;;;;;;;;;5012605;28;20032;-33
2022/03/15 05:36:25;;;;;;;3.33;0.70;;;;;;;;;;5012446;28;20033;-33
2022/03/15 05:38:52;;;;;;;2.45;0.50;;;;;;;;;;5012716;28;20054;-33
2022/03/15 05:41:19;;;;;;;4.68;0.80;;;;;;;;;;5012482;28;20092;-33
2022/03/15 05:43:46;;;;;;;2.70;0.70;;;;;;;;;;5012683;28;20049;-33
2022/03/15 05:46:13;;;;;;;3.45;0.60;;;;;;;;;;5012466;28;20034;-33
2022/03/15 05:48:40;;;;;;;1.45;0.55;;;;;;;;;;5012635;28;20084;-33
2022/03/15 05:51:07;;;;;;;2.90;0.77;;;;;;;;;;5012663;28;20026;-33
2022/03/15 05:53:34;;;;;;;1.70;0.40;;;;;;;;;;5012555;28;20026;-33
2022/03/15 05:56:01;;;;;;;2.88;0.70;;;;;;;;;;5012487;28;20038;-33
2022/03/15 05:58:28;;;;;;;2.35;0.65;;;;;;;;;;5013589;28;20072;-33
2022/03/15 06:00:56;;;;;;;5.18;1.05;;;;;;;;;;5016560;28;20557;-33
2022/03/15 06:03:23;;;;;;;3.13;0.70;;;;;;;;;;5016311;28;20042;-32
2022/03/15 06:05:52;;;;;;;2.10;0.55;;;;;;;;;;5016217;28;20156;-33
2022/03/15 06:08:19;;;;;;;1.67;0.70;;;;;;;;;;5016322;28;20068;-33
2022/03/15 06:10:46;;;;;;;2.45;0.52;;;;;;;;;;5016243;28;20396;-33
2022/03/15 06:13:13;;;;;;;2.78;0.70;;;;;;;;;;5016251;28;20030;-33
2022/03/15 06:15:40;;;;;;;4.82;0.90;;;;;;;;;;5016124;28;20022;-33
2022/03/15 06:18:07;;;;;;;1.52;0.45;;;;;;;;;;5016203;28;20042;-33
2022/03/15 06:20:34;;;;;;;2.67;0.80;;;;;;;;;;5016223;28;20029;-33
2022/03/15 06:23:02;;;;;;;3.03;0.73;;;;;;;;;;5016217;28;20037;-33
2022/03/15 06:25:30;;;;;;;4.15;0.60;;;;;;;;;;5010939;28;20035;-33
2022/03/15 06:27:57;;;;;;;2.35;0.50;;;;;;;;;;5014935;28;20555;-33
2022/03/15 06:30:24;;;;;;;2.35;0.77;;;;;;;;;;5016023;28;20042;-33
2022/03/15 06:32:51;;;;;;;0.85;0.40;;;;;;;;;;5147025;23;20513;-31
2022/03/15 06:35:19;;;;;;;3.75;0.73;;;;;;;;;;5005299;28;20441;-29
2022/03/15 06:37:46;;;;;;;3.65;0.90;;;;;;;;;;4996233;28;20076;-29
2022/03/15 06:40:15;;;;;;;3.28;0.50;;;;;;;;;;4996285;28;20538;-28
2022/03/15 06:42:43;;;;;;;3.08;0.65;;;;;;;;;;4996367;28;20049;-30
2022/03/15 06:45:11;;;;;;;2.55;0.70;;;;;;;;;;4996127;28;20076;-29
2022/03/15 06:47:39;;;;;;;3.10;0.50;;;;;;;;;;4996047;28;20062;-29
2022/03/15 06:50:12;;;;;;;3.78;0.80;;;;;;;;;;4996131;28;20523;-29
2022/03/15 06:52:39;;;;;;;1.63;0.50;;;;;;;;;;4995876;28;20088;-29
2022/03/15 06:55:06;;;;;;;4.40;0.50;;;;;;;;;;4996073;28;20042;-28
2022/03/15 06:57:34;;;;;;;2.67;0.50;;;;;;;;;;4996116;28;20392;-29
2022/03/15 07:00:02;;;;;;;2.38;0.65;;;;;;;;;;4995798;28;20061;-29
2022/03/15 07:02:29;;;;;;;2.17;0.43;;;;;;;;;;4978607;28;20045;-29
2022/03/15 07:04:56;;;;;;;2.28;0.45;;;;;;;;;;4995832;28;20093;-30
2022/03/15 07:07:23;;;;;;;3.17;0.60;;;;;;;;;;4995720;28;20030;-29
2022/03/15 07:09:50;;;;;;;2.22;0.60;;;;;;;;;;4994307;28;20026;-28
2022/03/15 07:12:18;;;;;;;3.33;0.60;;;;;;;;;;4995572;28;20026;-29
2022/03/15 07:14:45;;;;;;;2.40;0.50;;;;;;;;;;4995547;28;20030;-29
2022/03/15 07:17:13;;;;;;;1.95;0.68;;;;;;;;;;4995550;28;20034;-29
2022/03/15 07:19:40;;;;;;;1.23;0.30;;;;;;;;;;4995428;28;20038;-28
2022/03/15 07:22:06;;;;;;;2.38;0.43;;;;;;;;;;4995386;28;20030;-30
2022/03/15 07:24:34;;;;;;;1.75;0.65;;;;;;;;;;4995488;28;20022;-29
2022/03/15 07:27:01;;;;;;;1.60;0.50;;;;;;;;;;4995298;28;20030;-29
2022/03/15 07:29:28;;;;;;;1.63;0.50;;;;;;;;;;4995360;28;20034;-28
2022/03/15 07:31:56;;;;;;;1.27;0.50;;;;;;;;;;4995053;28;20113;-29
2022/03/15 07:34:23;;;;;;;2.30;0.50;;;;;;;;;;4995262;28;20034;-29
2022/03/15 07:36:50;;;;;;;1.98;0.60;;;;;;;;;;4995212;28;20042;-29
2022/03/15 07:39:17;;;;;;;1.90;0.50;;;;;;;;;;4995080;28;20018;-29
2022/03/15 07:41:46;;;;;;;2.10;0.65;;;;;;;;;;4995068;28;20039;-29
2022/03/15 07:44:13;;;;;;;2.40;0.55;;;;;;;;;;4977544;28;20026;-28
2022/03/15 07:46:43;;;;;;;1.35;0.40;;;;;;;;;;4994987;28;20034;-29
2022/03/15 07:49:10;;;;;;;1.80;0.57;;;;;;;;;;4995015;28;20073;-29
2022/03/15 07:51:37;;;;;;;4.18;1.00;;;;;;;;;;4994776;28;20546;-29
2022/03/15 07:54:04;;;;;;;1.65;0.52;;;;;;;;;;4994961;28;20389;-30
2022/03/15 07:56:31;;;;;;;1.45;0.55;;;;;;;;;;4994872;28;20026;-29
2022/03/15 07:58:58;;;;;;;3.72;0.50;;;;;;;;;;4994973;28;20384;-28
2022/03/15 08:01:25;;;;;;;2.40;0.45;;;;;;;;;;4994704;28;20030;-29
2022/03/15 08:03:53;;;;;;;2.13;0.50;;;;;;;;;;4994728;28;20030;-29
2022/03/15 08:06:20;;;;;;;2.15;0.50;;;;;;;;;;4994481;28;20045;-29
2022/03/15 08:08:48;;;;;;;2.67;0.63;;;;;;;;;;4994549;28;20429;-28
2022/03/15 08:11:15;;;;;;;2.88;0.60;;;;;;;;;;4994334;28;20034;-29
2022/03/15 08:13:42;;;;;;;2.42;0.60;;;;;;;;;;4994289;28;20041;-30
2022/03/15 08:16:09;;;;;;;3.10;0.60;;;;;;;;;;4994481;28;20391;-28
2022/03/15 08:18:36;;;;;;;4.57;0.50;;;;;;;;;;4994445;28;20035;-29
2022/03/15 08:21:03;;;;;;;4.18;0.63;;;;;;;;;;4993876;28;20117;-30
2022/03/15 08:23:30;;;;;;;1.98;0.50;;;;;;;;;;4994336;28;20058;-28
2022/03/15 08:25:58;;;;;;;2.83;0.60;;;;;;;;;;4994268;28;20023;-28
2022/03/15 08:28:26;;;;;;;1.48;0.50;;;;;;;;;;4994296;28;20477;-28
2022/03/15 08:30:53;;;;;;;2.03;0.60;;;;;;;;;;4994171;28;20532;-29
2022/03/15 08:33:21;;;;;;;2.55;0.80;;;;;;;;;;4994028;28;20496;-29
2022/03/15 08:35:49;;;;;;;2.15;0.55;;;;;;;;;;4994000;28;20385;-31
2022/03/15 08:38:16;;;;;;;1.38;0.50;;;;;;;;;;4976672;28;20030;-31
2022/03/15 08:40:43;;;;;;;2.70;0.60;;;;;;;;;;4994041;28;20420;-29
2022/03/15 08:43:10;;;;;;;2.83;0.40;;;;;;;;;;4993876;28;20026;-28
2022/03/15 08:45:38;;;;;;;3.72;0.60;;;;;;;;;;4993928;28;20476;-28
2022/03/15 08:48:06;;;;;;;1.80;0.52;;;;;;;;;;4993903;28;20062;-28
2022/03/15 08:50:33;;;;;;;3.53;0.60;;;;;;;;;;4993866;28;20492;-28
2022/03/15 08:53:00;;;;;;;2.08;0.60;;;;;;;;;;4993697;28;20389;-30
2022/03/15 08:55:28;;;;;;;2.03;0.50;;;;;;;;;;4993746;28;20033;-29
2022/03/15 08:57:55;;;;;;;2.53;0.60;;;;;;;;;;4993682;28;20026;-29
2022/03/15 09:00:22;;;;;;;2.05;0.60;;;;;;;;;;4993737;28;20034;-29
2022/03/15 09:02:50;;;;;;;2.80;0.50;;;;;;;;;;4993751;28;20432;-28
2022/03/15 09:05:19;;;;;;;2.72;0.75;;;;;;;;;;4993495;28;20515;-30
2022/03/15 09:07:51;;;;;;;2.45;0.75;;;;;;;;;;4993479;28;20034;-29
2022/03/15 09:10:18;;;;;;;;;;;;;;;;;;4994093;28;20038;-29
2022/03/15 09:12:45;;;;;;;2.03;0.68;;;;;;;;;;4993377;28;19909;-29
2022/03/15 09:15:12;;;;;;;5.45;0.50;;;;;;;;;;4993453;28;20026;-30
2022/03/15 09:17:39;;;;;;;4.13;0.60;;;;;;;;;;4993410;28;20113;-29
2022/03/15 09:20:08;;;;;;;2.63;0.50;;;;;;;;;;4993379;28;20034;-29
2022/03/15 09:22:35;;;;;;;1.63;0.60;;;;;;;;;;4993097;28;20062;-28
2022/03/15 09:25:03;;;;;;;3.20;0.50;;;;;;;;;;4975461;28;20077;-28
2022/03/15 09:27:30;;;;;;;1.60;0.57;;;;;;;;;;4993114;28;20538;-29
2022/03/15 09:29:58;;;;;;;3.83;0.50;;;;;;;;;;4993227;28;20031;-32
2022/03/15 09:32:26;;;;;;;1.80;0.65;;;;;;;;;;4992412;28;20084;-29
2022/03/15 09:34:53;;;;;;;4.10;0.70;;;;;;;;;;4992761;28;20069;-33
2022/03/15 09:37:20;;;;;;;2.85;0.60;;;;;;;;;;4993097;28;20156;-32
2022/03/15 09:39:47;;;;;;;3.08;0.60;;;;;;;;;;4992869;28;20030;-29
2022/03/15 09:42:17;;;;;;;9.50;0.90;;;;;;;;;;4992681;28;20034;-31
2022/03/15 09:44:45;;;;;;;4.75;0.60;;;;;;;;;;4992987;28;20026;-32
2022/03/15 09:47:14;;;;;;;12.75;0.95;;;;;;;;;;4992899;28;20033;-29
2022/03/15 09:49:44;;;;;;;11.43;0.93;;;;;;;;;;4992513;28;20042;-28
2022/03/15 09:52:11;;;;;;;8.63;0.90;;;;;;;;;;4992610;28;20069;-29
2022/03/15 09:54:39;;;;;;;7.22;0.90;;;;;;;;;;4992923;28;20058;-29
2022/03/15 09:57:06;;;;;;;8.43;0.95;;;;;;;;;;4993583;28;20077;-29
2022/03/15 09:59:33;;;;;;;11.32;1.52;;;;;;;;;;5009663;28;20044;-31
2022/03/15 10:02:00;;;;;;;10.38;1.00;;;;;;;;;;5012174;28;20030;-28
2022/03/15 10:04:28;;;;;;;13.48;1.10;;;;;;;;;;5006908;28;20040;-28
2022/03/15 10:06:55;;;;;;;9.23;1.20;;;;;;;;;;5011235;28;20113;-29
2022/03/15 10:09:23;;;;;;;17.95;1.85;;;;;;;;;;4997115;28;20069;-29
2022/03/15 10:11:50;;;;;;;8.32;1.40;;;;;;;;;;4992647;28;20503;-28
2022/03/15 10:14:19;;;;;;;15.55;2.17;;;;;;;;;;4992697;28;20038;-29
2022/03/15 10:16:46;;;;;;;12.55;2.33;;;;;;;;;;4992712;28;20034;-29
2022/03/15 10:19:15;;;;;;;16.05;1.98;;;;;;;;;;4992773;28;20388;-29
2022/03/15 10:21:45;;;;;;;14.75;2.33;;;;;;;;;;4992586;28;20022;-29
2022/03/15 10:24:14;;;;;;;20.73;2.75;;;;;;;;;;4992625;28;20037;-28
2022/03/15 10:26:41;;;;;;;20.30;2.08;;;;;;;;;;4992501;28;20519;-29
2022/03/15 10:29:11;;;;;;;15.13;2.13;;;;;;;;;;4992590;28;20034;-28
2022/03/15 10:31:38;;;;;;;14.10;2.35;;;;;;;;;;4992233;28;20080;-29
2022/03/15 10:34:07;;;;;;;18.60;2.70;;;;;;;;;;4992548;28;20030;-30
2022/03/15 10:36:45;;;;;;;16.60;2.47;;;;;;;;;;4992561;28;20062;-29
2022/03/15 10:39:13;;;;;;;22.17;2.88;;;;;;;;;;4992550;28;20388;-29
2022/03/15 10:41:45;;;;;;;26.05;3.13;;;;;;;;;;4992482;28;20034;-29
2022/03/15 10:44:17;;;;;;;32.00;3.50;;;;;;;;;;4992935;28;20491;-29
2022/03/15 10:46:44;;;;;;;31.58;3.65;;;;;;;;;;4996027;28;20041;-30
2022/03/15 10:49:12;;;;;;;33.60;4.20;;;;;;;;;;4996104;28;20022;-28
2022/03/15 10:51:39;;;;;;;39.67;4.38;;;;;;;;;;4995875;28;20089;-30
2022/03/15 10:54:08;;;;;;;35.38;4.97;;;;;;;;;;4995991;28;20030;-28
2022/03/15 10:56:36;;;;;;;33.88;4.93;;;;;;;;;;4995895;28;20124;-29
2022/03/15 10:59:05;;;;;;;45.53;5.88;;;;;;;;;;4995967;28;20034;-29
2022/03/15 11:01:42;;;;;;;40.88;4.95;;;;;;;;;;4995797;28;20026;-28
2022/03/15 11:04:10;;;;;;;45.65;5.80;;;;;;;;;;4995547;28;20384;-28
2022/03/15 11:06:38;;;;;;;56.28;5.75;;;;;;;;;;4995466;28;20423;-30
2022/03/15 11:09:24;;;;;;;54.55;5.63;;;;;;;;;;4995715;28;20022;-28
2022/03/15 11:12:02;;;;;;;82.45;6.82;;;;;;;;;;4995264;28;20034;-29
2022/03/15 11:14:36;;;;;;;60.28;6.28;;;;;;;;;;4995685;28;20096;-29
2022/03/15 11:17:07;;;;;;;61.83;6.57;;;;;;;;;;4995326;28;20449;-29
2022/03/15 11:19:37;;;;;;;125.15;10.05;;;;;;;;;;4995369;28;20019;-29
2022/03/15 11:22:05;;;;;;;103.95;9.90;;;;;;;;;;4995311;28;20025;-30
2022/03/15 11:24:35;;;;;;;117.32;11.43;;;;;;;;;;4977748;28;20121;-31
2022/03/15 11:27:02;;;;;;;145.43;11.50;;;;;;;;;;4995177;28;20473;-38
2022/03/15 11:29:32;;;;;;;146.55;11.73;;;;;;;;;;4995143;28;20053;-39
2022/03/15 11:32:00;;;;;;;98.35;8.98;;;;;;;;;;4994909;28;20165;-38
2022/03/15 11:34:27;;;;;;;99.07;9.05;;;;;;;;;;4995057;28;20353;-37
2022/03/15 11:36:54;;;;;;;84.50;7.28;;;;;;;;;;4995328;28;20396;-38
2022/03/15 11:39:21;;;;;;;61.30;6.00;;;;;;;;;;4995052;28;20097;-37
2022/03/15 11:41:49;;;;;;;62.55;4.50;;;;;;;;;;4994970;28;20062;-40
2022/03/15 11:44:20;;;;;;;117.60;10.40;;;;;;;;;;4994987;28;20073;-40
2022/03/15 11:47:00;;;;;;;92.20;9.15;;;;;;;;;;4995019;28;20085;-39
2022/03/15 11:49:30;;;;;;;65.32;6.15;;;;;;;;;;4994733;28;20125;-41
2022/03/15 11:52:17;;;;;;;129.10;10.27;;;;;;;;;;4994909;28;20564;-41
2022/03/15 11:55:11;;;;;;;64.95;6.03;;;;;;;;;;4993661;28;20045;-39
2022/03/15 11:57:43;;;;;;;43.13;4.78;;;;;;;;;;4993911;28;20503;-40
2022/03/15 12:00:10;;;;;;;46.90;5.38;;;;;;;;;;4994795;28;20109;-41
2022/03/15 12:02:41;;;;;;;52.08;4.95;;;;;;;;;;4994749;28;20034;-41
2022/03/15 12:05:21;;;;;;;79.10;7.45;;;;;;;;;;4994781;28;20132;-39
2022/03/15 12:07:50;;;;;;;89.65;8.48;;;;;;;;;;4994684;28;20034;-40
2022/03/15 12:10:24;;;;;;;97.43;7.10;;;;;;;;;;4994593;28;20042;-40
2022/03/15 12:13:04;;;;;;;108.32;9.13;;;;;;;;;;4994542;28;20018;-36
2022/03/15 12:15:38;;;;;;;108.50;9.32;;;;;;;;;;4994626;28;20023;-40
2022/03/15 12:21:11;;;;;;;80.13;7.70;;;;;;;;;;4994607;28;20515;-39
2022/03/15 12:23:40;;;;;;;72.40;8.45;;;;;;;;;;4989229;28;20092;-39
2022/03/15 12:26:17;;;;;;;55.20;8.20;;;;;;;;;;4994265;28;20027;-40
2022/03/15 12:28:54;;;;;;;135.18;11.98;;;;;;;;;;4994431;28;20425;-40
2022/03/15 12:31:32;;;;;;;88.63;8.65;;;;;;;;;;4993959;28;20062;-40
2022/03/15 12:34:06;;;;;;;67.78;6.88;;;;;;;;;;4994145;28;20065;-40
2022/03/15 12:36:37;;;;;;;64.47;6.40;;;;;;;;;;4993901;28;20061;-41
2022/03/15 12:39:10;;;;;;;63.78;6.07;;;;;;;;;;4994082;28;20042;-39
2022/03/15 12:41:39;;;;;;;119.20;11.27;;;;;;;;;;4993850;28;20366;-40
2022/03/15 12:44:07;;;;;;;89.43;8.07;;;;;;;;;;4993792;28;20038;-40
2022/03/15 12:46:36;;;;;;;41.92;6.00;;;;;;;;;;4994040;28;20052;-39
2022/03/15 12:49:09;;;;;;;46.15;5.78;;;;;;;;;;4993995;28;20385;-40
2022/03/15 12:51:38;;;;;;;57.03;5.68;;;;;;;;;;4993660;28;20038;-40
2022/03/15 12:54:06;;;;;;;72.50;6.57;;;;;;;;;;4993732;28;20076;-41
2022/03/15 12:56:35;;;;;;;153.93;12.82;;;;;;;;;;4993599;28;20057;-41
2022/03/15 12:59:03;;;;;;;71.03;5.93;;;;;;;;;;4993718;28;20429;-41
2022/03/15 13:01:30;;;;;;;53.45;5.07;;;;;;;;;;4993547;28;20484;-41
2022/03/15 13:03:57;;;;;;;216.48;18.05;;;;;;;;;;4993652;28;20034;-40
2022/03/15 13:06:25;;;;;;;67.05;7.57;;;;;;;;;;4993644;28;20173;-41
2022/03/15 13:08:54;;;;;;;73.00;8.50;;;;;;;;;;4993269;28;20039;-40
2022/03/15 13:11:21;;;;;;;57.63;6.97;;;;;;;;;;4993193;28;20034;-38
2022/03/15 13:13:48;;;;;;;110.45;11.40;;;;;;;;;;4993317;28;20031;-41
2022/03/15 13:16:15;;;;;;;91.47;9.70;;;;;;;;;;4993343;28;20030;-41
2022/03/15 13:18:43;;;;;;;72.18;10.13;;;;;;;;;;4993343;28;20034;-41
2022/03/15 13:21:12;;;;;;;90.18;9.73;;;;;;;;;;4993137;28;20113;-41
2022/03/15 13:23:41;;;;;;;58.92;8.32;;;;;;;;;;4993220;28;20049;-40
2022/03/15 13:26:12;;;;;;;70.07;8.25;;;;;;;;;;4993231;28;20038;-38
2022/03/15 13:28:40;;;;;;;66.03;8.65;;;;;;;;;;4993153;28;20034;-41
2022/03/15 13:31:09;;;;;;;57.15;8.40;;;;;;;;;;4992937;28;20041;-41
2022/03/15 13:33:39;;;;;;;62.05;8.00;;;;;;;;;;4992498;28;20085;-41
2022/03/15 13:36:14;;;;;;;77.32;8.10;;;;;;;;;;4992961;28;20105;-41
2022/03/15 13:38:45;;;;;;;57.10;7.20;;;;;;;;;;4992928;28;20042;-40
2022/03/15 13:41:14;;;;;;;52.30;6.43;;;;;;;;;;4992899;28;20129;-41
2022/03/15 13:43:42;;;;;;;34.83;4.65;;;;;;;;;;4991221;28;20033;-41
2022/03/15 13:46:10;;;;;;;38.30;4.72;;;;;;;;;;5011705;28;20480;-40
2022/03/15 13:48:41;;;;;;;45.08;5.85;;;;;;;;;;5031935;28;20029;-39
2022/03/15 13:51:12;;;;;;;40.50;4.32;;;;;;;;;;5031790;28;20472;-40
2022/03/15 13:53:43;;;;;;;57.97;5.55;;;;;;;;;;5031581;28;20017;-40
2022/03/15 13:56:12;;;;;;;38.40;4.55;;;;;;;;;;5031730;28;20123;-40
2022/03/15 13:58:42;;;;;;;35.20;4.15;;;;;;;;;;5031863;28;20044;-41
2022/03/15 14:01:09;;;;;;;38.47;3.45;;;;;;;;;;5031256;28;20499;-41
2022/03/15 14:03:37;;;;;;;27.55;4.10;;;;;;;;;;5031880;28;20037;-41
2022/03/15 14:06:08;;;;;;;37.00;4.05;;;;;;;;;;5031623;28;20033;-41
2022/03/15 14:08:47;;;;;;;31.20;4.28;;;;;;;;;;5031630;28;20466;-40
2022/03/15 14:11:14;;;;;;;30.20;3.92;;;;;;;;;;5031610;28;20155;-41
2022/03/15 14:13:55;;;;;;;27.27;3.08;;;;;;;;;;5031728;28;20025;-41
2022/03/15 14:16:32;;;;;;;31.23;3.58;;;;;;;;;;5031249;28;20044;-40
2022/03/15 14:19:01;;;;;;;33.03;2.83;;;;;;;;;;5031868;28;20049;-41
2022/03/15 14:21:29;;;;;;;36.03;3.35;;;;;;;;;;5035629;28;20037;-39
2022/03/15 14:23:57;;;;;;;25.08;3.30;;;;;;;;;;5035234;28;20026;-39
2022/03/15 14:26:27;;;;;;;46.90;4.80;;;;;;;;;;5035515;28;20044;-41
2022/03/15 14:28:55;;;;;;;35.03;3.38;;;;;;;;;;5035740;28;20033;-40
2022/03/15 14:31:30;;;;;;;30.13;3.17;;;;;;;;;;5035083;28;20033;-41
2022/03/15 14:34:16;;;;;;;31.90;3.03;;;;;;;;;;5035380;28;20103;-41
2022/03/15 14:36:45;;;;;;;31.33;3.72;;;;;;;;;;5035373;28;20095;-41
2022/03/15 14:39:17;;;;;;;38.45;4.40;;;;;;;;;;5034960;28;20045;-38
2022/03/15 14:41:44;;;;;;;;;;;;;;;;;;5035541;28;20402;-39
2022/03/15 14:44:12;;;;;;;35.90;3.03;;;;;;;;;;5035233;28;19913;-41
2022/03/15 14:46:43;;;;;;;31.27;3.30;;;;;;;;;;5034995;28;20686;-42
2022/03/15 14:49:11;;;;;;;34.47;4.07;;;;;;;;;;5035045;28;20065;-40
2022/03/15 14:51:40;;;;;;;29.63;3.72;;;;;;;;;;5035096;28;20280;-41